sensor_id;sensor_type;location;lat;lon;timestamp;temperature;humidity
13998;DHT22;7074;51.508;7.018;2023-03-07T00:01:55;6.00;99.90
13998;DHT22;7074;51.508;7.018;2023-03-07T00:04:22;6.00;99.90
13998;DHT22;7074;51.508;7.018;2023-03-07T00:06:50;6.00;99.90
13998;DHT22;7074;51.508;7.018;2023-03-07T00:09:17;6.00;99.90
13998;DHT22;7074;51.508;7.018;2023-03-07T00:11:46;6.00;99.90
13998;DHT22;7074;51.508;7.018;2023-03-07T00:14:13;6.00;99.90
13998;DHT22;7074;51.508;7.018;2023-03-07T00:16:40;5.90;99.90
13998;DHT22;7074;51.508;7.018;2023-03-07T00:19:07;5.90;99.90
13998;DHT22;7074;51.508;7.018;2023-03-07T00:21:34;5.90;99.90
13998;DHT22;7074;51.508;7.018;2023-03-07T00:24:02;6.00;99.90
13998;DHT22;7074;51.508;7.018;2023-03-07T00:26:29;6.00;99.90
13998;DHT22;7074;51.508;7.018;2023-03-07T00:28:58;6.00;99.90
13998;DHT22;7074;51.508;7.018;2023-03-07T00:31:25;6.00;99.90
13998;DHT22;7074;51.508;7.018;2023-03-07T00:33:53;6.00;99.90
13998;DHT22;7074;51.508;7.018;2023-03-07T00:36:21;6.00;99.90
13998;DHT22;7074;51.508;7.018;2023-03-07T00:38:49;6.00;99.90
13998;DHT22;7074;51.508;7.018;2023-03-07T00:41:18;6.00;99.90
13998;DHT22;7074;51.508;7.018;2023-03-07T00:43:46;6.00;99.90
13998;DHT22;7074;51.508;7.018;2023-03-07T00:46:16;6.00;99.90
13998;DHT22;7074;51.508;7.018;2023-03-07T00:48:44;6.00;99.90
13998;DHT22;7074;51.508;7.018;2023-03-07T00:51:14;6.00;99.90
13998;DHT22;7074;51.508;7.018;2023-03-07T00:53:42;6.10;99.90
13998;DHT22;7074;51.508;7.018;2023-03-07T00:56:13;6.10;99.90
13998;DHT22;7074;51.508;7.018;2023-03-07T00:58:43;6.10;99.90
13998;DHT22;7074;51.508;7.018;2023-03-07T01:01:11;6.10;99.90
13998;DHT22;7074;51.508;7.018;2023-03-07T01:03:41;6.10;99.90
13998;DHT22;7074;51.508;7.018;2023-03-07T01:06:12;6.20;99.90
13998;DHT22;7074;51.508;7.018;2023-03-07T01:08:40;6.10;99.90
13998;DHT22;7074;51.508;7.018;2023-03-07T01:11:07;6.20;99.90
13998;DHT22;7074;51.508;7.018;2023-03-07T01:13:35;6.00;99.90
13998;DHT22;7074;51.508;7.018;2023-03-07T01:16:07;6.10;99.90
13998;DHT22;7074;51.508;7.018;2023-03-07T01:18:35;6.10;99.90
13998;DHT22;7074;51.508;7.018;2023-03-07T01:21:11;6.10;99.90
13998;DHT22;7074;51.508;7.018;2023-03-07T01:23:39;6.10;99.90
13998;DHT22;7074;51.508;7.018;2023-03-07T01:26:11;6.10;99.90
13998;DHT22;7074;51.508;7.018;2023-03-07T01:28:39;6.20;99.90
13998;DHT22;7074;51.508;7.018;2023-03-07T01:31:06;6.20;99.90
13998;DHT22;7074;51.508;7.018;2023-03-07T01:33:34;6.20;99.90
13998;DHT22;7074;51.508;7.018;2023-03-07T01:36:01;6.20;99.90
13998;DHT22;7074;51.508;7.018;2023-03-07T01:38:30;6.20;99.90
13998;DHT22;7074;51.508;7.018;2023-03-07T01:41:01;6.20;99.90
13998;DHT22;7074;51.508;7.018;2023-03-07T01:43:30;6.20;99.90
13998;DHT22;7074;51.508;7.018;2023-03-07T01:46:41;6.20;99.90
13998;DHT22;7074;51.508;7.018;2023-03-07T01:49:20;6.20;99.90
13998;DHT22;7074;51.508;7.018;2023-03-07T01:51:58;6.20;99.90
13998;DHT22;7074;51.508;7.018;2023-03-07T01:54:30;6.20;99.90
13998;DHT22;7074;51.508;7.018;2023-03-07T01:57:01;6.30;99.90
13998;DHT22;7074;51.508;7.018;2023-03-07T01:59:31;6.30;99.90
13998;DHT22;7074;51.508;7.018;2023-03-07T02:02:02;6.30;99.90
13998;DHT22;7074;51.508;7.018;2023-03-07T02:04:35;6.30;99.90
13998;DHT22;7074;51.508;7.018;2023-03-07T02:07:04;6.30;99.90
13998;DHT22;7074;51.508;7.018;2023-03-07T02:09:37;6.30;99.90
13998;DHT22;7074;51.508;7.018;2023-03-07T02:12:06;6.30;99.90
13998;DHT22;7074;51.508;7.018;2023-03-07T02:14:34;6.20;99.90
13998;DHT22;7074;51.508;7.018;2023-03-07T02:17:01;6.20;99.90
13998;DHT22;7074;51.508;7.018;2023-03-07T02:19:39;6.20;99.90
13998;DHT22;7074;51.508;7.018;2023-03-07T02:22:12;6.20;99.90
13998;DHT22;7074;51.508;7.018;2023-03-07T02:24:47;6.20;99.90
13998;DHT22;7074;51.508;7.018;2023-03-07T02:27:19;6.30;99.90
13998;DHT22;7074;51.508;7.018;2023-03-07T02:29:46;6.20;99.90
13998;DHT22;7074;51.508;7.018;2023-03-07T02:32:14;6.20;99.90
13998;DHT22;7074;51.508;7.018;2023-03-07T02:34:41;6.20;99.90
13998;DHT22;7074;51.508;7.018;2023-03-07T02:37:19;6.20;99.90
13998;DHT22;7074;51.508;7.018;2023-03-07T02:39:48;6.30;99.90
13998;DHT22;7074;51.508;7.018;2023-03-07T02:42:21;6.30;99.90
13998;DHT22;7074;51.508;7.018;2023-03-07T02:44:56;6.30;99.90
13998;DHT22;7074;51.508;7.018;2023-03-07T02:47:25;6.30;99.90
13998;DHT22;7074;51.508;7.018;2023-03-07T02:49:53;6.20;99.90
13998;DHT22;7074;51.508;7.018;2023-03-07T02:52:21;6.30;99.90
13998;DHT22;7074;51.508;7.018;2023-03-07T02:54:48;6.20;99.90
13998;DHT22;7074;51.508;7.018;2023-03-07T02:57:16;6.20;99.90
13998;DHT22;7074;51.508;7.018;2023-03-07T02:59:46;6.20;99.90
13998;DHT22;7074;51.508;7.018;2023-03-07T03:02:13;6.20;99.90
13998;DHT22;7074;51.508;7.018;2023-03-07T03:04:40;6.20;99.90
13998;DHT22;7074;51.508;7.018;2023-03-07T03:07:07;6.20;99.90
13998;DHT22;7074;51.508;7.018;2023-03-07T03:09:35;6.30;99.90
13998;DHT22;7074;51.508;7.018;2023-03-07T03:12:03;6.20;99.90
13998;DHT22;7074;51.508;7.018;2023-03-07T03:14:32;6.30;99.90
13998;DHT22;7074;51.508;7.018;2023-03-07T03:17:01;6.30;99.90
13998;DHT22;7074;51.508;7.018;2023-03-07T03:19:28;6.30;99.90
13998;DHT22;7074;51.508;7.018;2023-03-07T03:21:56;6.30;99.90
13998;DHT22;7074;51.508;7.018;2023-03-07T03:24:24;6.30;99.90
13998;DHT22;7074;51.508;7.018;2023-03-07T03:26:54;6.30;99.90
13998;DHT22;7074;51.508;7.018;2023-03-07T03:29:22;6.20;99.90
13998;DHT22;7074;51.508;7.018;2023-03-07T03:31:50;6.20;99.90
13998;DHT22;7074;51.508;7.018;2023-03-07T03:34:19;6.20;99.90
13998;DHT22;7074;51.508;7.018;2023-03-07T03:36:49;6.20;99.90
13998;DHT22;7074;51.508;7.018;2023-03-07T03:39:18;6.20;99.90
13998;DHT22;7074;51.508;7.018;2023-03-07T03:41:49;6.20;99.90
13998;DHT22;7074;51.508;7.018;2023-03-07T03:44:20;6.00;99.90
13998;DHT22;7074;51.508;7.018;2023-03-07T03:46:47;6.10;99.90
13998;DHT22;7074;51.508;7.018;2023-03-07T03:49:16;6.10;99.90
13998;DHT22;7074;51.508;7.018;2023-03-07T03:51:48;6.10;99.90
13998;DHT22;7074;51.508;7.018;2023-03-07T03:54:16;6.00;99.90
13998;DHT22;7074;51.508;7.018;2023-03-07T03:56:43;6.10;99.90
13998;DHT22;7074;51.508;7.018;2023-03-07T03:59:11;6.10;99.90
13998;DHT22;7074;51.508;7.018;2023-03-07T04:01:38;6.10;99.90
13998;DHT22;7074;51.508;7.018;2023-03-07T04:04:06;6.10;99.90
13998;DHT22;7074;51.508;7.018;2023-03-07T04:06:34;6.10;99.90
13998;DHT22;7074;51.508;7.018;2023-03-07T04:09:03;6.10;99.90
13998;DHT22;7074;51.508;7.018;2023-03-07T04:11:31;6.00;99.90
13998;DHT22;7074;51.508;7.018;2023-03-07T04:13:58;6.00;99.90
13998;DHT22;7074;51.508;7.018;2023-03-07T04:16:26;6.00;99.90
13998;DHT22;7074;51.508;7.018;2023-03-07T04:18:53;6.00;99.90
13998;DHT22;7074;51.508;7.018;2023-03-07T04:21:21;6.10;99.90
13998;DHT22;7074;51.508;7.018;2023-03-07T04:23:51;6.00;99.90
13998;DHT22;7074;51.508;7.018;2023-03-07T04:26:23;6.10;99.90
13998;DHT22;7074;51.508;7.018;2023-03-07T04:28:50;6.10;99.90
13998;DHT22;7074;51.508;7.018;2023-03-07T04:31:24;6.00;99.90
13998;DHT22;7074;51.508;7.018;2023-03-07T04:33:53;6.00;99.90
13998;DHT22;7074;51.508;7.018;2023-03-07T04:36:21;6.00;99.90
13998;DHT22;7074;51.508;7.018;2023-03-07T04:38:50;6.00;99.90
13998;DHT22;7074;51.508;7.018;2023-03-07T04:41:19;6.00;99.90
13998;DHT22;7074;51.508;7.018;2023-03-07T04:43:52;6.00;99.90
13998;DHT22;7074;51.508;7.018;2023-03-07T04:46:21;6.00;99.90
13998;DHT22;7074;51.508;7.018;2023-03-07T04:48:48;6.10;99.90
13998;DHT22;7074;51.508;7.018;2023-03-07T04:51:15;6.10;99.90
13998;DHT22;7074;51.508;7.018;2023-03-07T04:53:43;6.10;99.90
13998;DHT22;7074;51.508;7.018;2023-03-07T04:56:10;6.10;99.90
13998;DHT22;7074;51.508;7.018;2023-03-07T04:58:41;6.20;99.90
13998;DHT22;7074;51.508;7.018;2023-03-07T05:01:10;6.20;99.90
13998;DHT22;7074;51.508;7.018;2023-03-07T05:03:37;6.30;99.90
13998;DHT22;7074;51.508;7.018;2023-03-07T05:06:07;6.30;99.90
13998;DHT22;7074;51.508;7.018;2023-03-07T05:08:34;6.30;99.90
13998;DHT22;7074;51.508;7.018;2023-03-07T05:11:01;6.30;99.90
13998;DHT22;7074;51.508;7.018;2023-03-07T05:13:30;6.30;99.90
13998;DHT22;7074;51.508;7.018;2023-03-07T05:15:57;6.20;99.90
13998;DHT22;7074;51.508;7.018;2023-03-07T05:18:28;6.20;99.90
13998;DHT22;7074;51.508;7.018;2023-03-07T05:20:57;6.20;99.90
13998;DHT22;7074;51.508;7.018;2023-03-07T05:23:25;6.20;99.90
13998;DHT22;7074;51.508;7.018;2023-03-07T05:25:53;6.20;99.90
13998;DHT22;7074;51.508;7.018;2023-03-07T05:28:21;6.20;99.90
13998;DHT22;7074;51.508;7.018;2023-03-07T05:30:48;6.20;99.90
13998;DHT22;7074;51.508;7.018;2023-03-07T05:33:15;6.20;99.90
13998;DHT22;7074;51.508;7.018;2023-03-07T05:35:44;6.20;99.90
13998;DHT22;7074;51.508;7.018;2023-03-07T05:38:12;6.20;99.90
13998;DHT22;7074;51.508;7.018;2023-03-07T05:40:40;6.10;99.90
13998;DHT22;7074;51.508;7.018;2023-03-07T05:43:09;6.00;99.90
13998;DHT22;7074;51.508;7.018;2023-03-07T05:45:36;6.00;99.90
13998;DHT22;7074;51.508;7.018;2023-03-07T05:48:04;6.20;99.90
13998;DHT22;7074;51.508;7.018;2023-03-07T05:50:31;6.30;99.90
13998;DHT22;7074;51.508;7.018;2023-03-07T05:53:00;6.40;99.90
13998;DHT22;7074;51.508;7.018;2023-03-07T05:55:29;6.40;99.90
13998;DHT22;7074;51.508;7.018;2023-03-07T05:57:58;6.40;99.90
13998;DHT22;7074;51.508;7.018;2023-03-07T06:00:26;6.50;99.90
13998;DHT22;7074;51.508;7.018;2023-03-07T06:03:00;6.60;99.90
13998;DHT22;7074;51.508;7.018;2023-03-07T06:05:28;6.50;99.90
13998;DHT22;7074;51.508;7.018;2023-03-07T06:07:55;6.50;99.90
13998;DHT22;7074;51.508;7.018;2023-03-07T06:10:24;6.40;99.90
13998;DHT22;7074;51.508;7.018;2023-03-07T06:12:52;6.40;99.90
13998;DHT22;7074;51.508;7.018;2023-03-07T06:15:20;6.40;99.90
13998;DHT22;7074;51.508;7.018;2023-03-07T06:17:51;6.30;99.90
13998;DHT22;7074;51.508;7.018;2023-03-07T06:20:19;6.30;99.90
13998;DHT22;7074;51.508;7.018;2023-03-07T06:22:47;6.20;99.90
13998;DHT22;7074;51.508;7.018;2023-03-07T06:25:15;6.20;99.90
13998;DHT22;7074;51.508;7.018;2023-03-07T06:27:47;6.20;99.90
13998;DHT22;7074;51.508;7.018;2023-03-07T06:30:15;6.20;99.90
13998;DHT22;7074;51.508;7.018;2023-03-07T06:32:42;6.20;99.90
13998;DHT22;7074;51.508;7.018;2023-03-07T06:35:10;6.20;99.90
13998;DHT22;7074;51.508;7.018;2023-03-07T06:37:37;6.20;99.90
13998;DHT22;7074;51.508;7.018;2023-03-07T06:40:05;6.10;99.90
13998;DHT22;7074;51.508;7.018;2023-03-07T06:42:35;6.20;99.90
13998;DHT22;7074;51.508;7.018;2023-03-07T06:45:06;6.20;99.90
13998;DHT22;7074;51.508;7.018;2023-03-07T06:47:34;6.20;99.90
13998;DHT22;7074;51.508;7.018;2023-03-07T06:50:02;6.20;99.90
13998;DHT22;7074;51.508;7.018;2023-03-07T06:52:31;6.20;99.90
13998;DHT22;7074;51.508;7.018;2023-03-07T06:54:59;6.20;99.90
13998;DHT22;7074;51.508;7.018;2023-03-07T06:57:28;6.20;99.90
13998;DHT22;7074;51.508;7.018;2023-03-07T06:59:55;6.20;99.90
13998;DHT22;7074;51.508;7.018;2023-03-07T07:02:24;6.20;99.90
13998;DHT22;7074;51.508;7.018;2023-03-07T07:04:53;6.20;99.90
13998;DHT22;7074;51.508;7.018;2023-03-07T07:07:23;6.20;99.90
13998;DHT22;7074;51.508;7.018;2023-03-07T07:09:51;6.20;99.90
13998;DHT22;7074;51.508;7.018;2023-03-07T07:12:19;6.20;99.90
13998;DHT22;7074;51.508;7.018;2023-03-07T07:14:46;6.10;99.90
13998;DHT22;7074;51.508;7.018;2023-03-07T07:17:14;6.10;99.90
13998;DHT22;7074;51.508;7.018;2023-03-07T07:19:43;6.10;99.90
13998;DHT22;7074;51.508;7.018;2023-03-07T07:22:11;6.10;99.90
13998;DHT22;7074;51.508;7.018;2023-03-07T07:24:39;6.20;99.90
13998;DHT22;7074;51.508;7.018;2023-03-07T07:27:07;6.20;99.90
13998;DHT22;7074;51.508;7.018;2023-03-07T07:29:35;6.20;99.90
13998;DHT22;7074;51.508;7.018;2023-03-07T07:32:03;6.20;99.90
13998;DHT22;7074;51.508;7.018;2023-03-07T07:34:30;6.20;99.90
13998;DHT22;7074;51.508;7.018;2023-03-07T07:36:59;6.20;99.90
13998;DHT22;7074;51.508;7.018;2023-03-07T07:39:28;6.20;99.90
13998;DHT22;7074;51.508;7.018;2023-03-07T07:41:55;6.20;99.90
13998;DHT22;7074;51.508;7.018;2023-03-07T07:44:28;6.20;99.90
13998;DHT22;7074;51.508;7.018;2023-03-07T07:46:58;6.20;99.90
13998;DHT22;7074;51.508;7.018;2023-03-07T07:49:25;6.30;99.90
13998;DHT22;7074;51.508;7.018;2023-03-07T07:51:55;6.30;99.90
13998;DHT22;7074;51.508;7.018;2023-03-07T07:54:25;6.40;99.90
13998;DHT22;7074;51.508;7.018;2023-03-07T07:56:53;6.40;99.90
13998;DHT22;7074;51.508;7.018;2023-03-07T07:59:22;6.40;99.90
13998;DHT22;7074;51.508;7.018;2023-03-07T08:01:50;6.30;99.90
13998;DHT22;7074;51.508;7.018;2023-03-07T08:04:18;6.30;99.90
13998;DHT22;7074;51.508;7.018;2023-03-07T08:06:46;6.30;99.90
13998;DHT22;7074;51.508;7.018;2023-03-07T08:09:13;6.20;99.90
13998;DHT22;7074;51.508;7.018;2023-03-07T08:11:42;6.20;99.90
13998;DHT22;7074;51.508;7.018;2023-03-07T08:14:10;6.20;99.90
13998;DHT22;7074;51.508;7.018;2023-03-07T08:16:43;6.20;99.90
13998;DHT22;7074;51.508;7.018;2023-03-07T08:19:10;6.20;99.90
13998;DHT22;7074;51.508;7.018;2023-03-07T08:21:41;6.20;99.90
13998;DHT22;7074;51.508;7.018;2023-03-07T08:24:09;6.10;99.90
13998;DHT22;7074;51.508;7.018;2023-03-07T08:26:42;6.10;99.90
13998;DHT22;7074;51.508;7.018;2023-03-07T08:29:09;6.00;99.90
13998;DHT22;7074;51.508;7.018;2023-03-07T08:31:37;6.00;99.90
13998;DHT22;7074;51.508;7.018;2023-03-07T08:34:07;5.80;99.90
13998;DHT22;7074;51.508;7.018;2023-03-07T08:36:34;5.80;99.90
13998;DHT22;7074;51.508;7.018;2023-03-07T08:39:02;5.80;99.90
13998;DHT22;7074;51.508;7.018;2023-03-07T08:41:30;5.70;99.90
13998;DHT22;7074;51.508;7.018;2023-03-07T08:43:59;5.70;99.90
13998;DHT22;7074;51.508;7.018;2023-03-07T08:46:27;5.70;99.90
13998;DHT22;7074;51.508;7.018;2023-03-07T08:48:54;5.60;99.90
13998;DHT22;7074;51.508;7.018;2023-03-07T08:51:22;5.60;99.90
13998;DHT22;7074;51.508;7.018;2023-03-07T08:53:49;5.70;99.90
13998;DHT22;7074;51.508;7.018;2023-03-07T08:56:18;5.70;99.90
13998;DHT22;7074;51.508;7.018;2023-03-07T08:58:45;5.60;99.90
13998;DHT22;7074;51.508;7.018;2023-03-07T09:01:14;5.60;99.90
13998;DHT22;7074;51.508;7.018;2023-03-07T09:03:42;5.50;99.90
13998;DHT22;7074;51.508;7.018;2023-03-07T09:06:15;5.50;99.90
13998;DHT22;7074;51.508;7.018;2023-03-07T09:08:43;5.50;99.90
13998;DHT22;7074;51.508;7.018;2023-03-07T09:11:11;5.50;99.90
13998;DHT22;7074;51.508;7.018;2023-03-07T09:13:38;5.50;99.90
13998;DHT22;7074;51.508;7.018;2023-03-07T09:16:06;5.40;99.90
13998;DHT22;7074;51.508;7.018;2023-03-07T09:18:35;5.40;99.90
13998;DHT22;7074;51.508;7.018;2023-03-07T09:21:03;5.40;99.90
13998;DHT22;7074;51.508;7.018;2023-03-07T09:23:31;5.40;99.90
13998;DHT22;7074;51.508;7.018;2023-03-07T09:25:59;5.40;99.90
13998;DHT22;7074;51.508;7.018;2023-03-07T09:28:27;5.40;99.90
13998;DHT22;7074;51.508;7.018;2023-03-07T09:30:54;5.20;99.90
13998;DHT22;7074;51.508;7.018;2023-03-07T09:33:22;5.30;99.90
13998;DHT22;7074;51.508;7.018;2023-03-07T09:35:54;5.30;99.90
13998;DHT22;7074;51.508;7.018;2023-03-07T09:38:21;5.40;99.90
13998;DHT22;7074;51.508;7.018;2023-03-07T09:40:48;5.30;99.90
13998;DHT22;7074;51.508;7.018;2023-03-07T09:43:19;5.30;99.90
13998;DHT22;7074;51.508;7.018;2023-03-07T09:46:09;5.40;99.90
13998;DHT22;7074;51.508;7.018;2023-03-07T09:48:56;5.10;99.90
13998;DHT22;7074;51.508;7.018;2023-03-07T09:51:36;5.10;99.90
13998;DHT22;7074;51.508;7.018;2023-03-07T09:54:08;5.10;99.90
13998;DHT22;7074;51.508;7.018;2023-03-07T09:56:41;5.30;99.90
13998;DHT22;7074;51.508;7.018;2023-03-07T09:59:15;5.30;99.90
13998;DHT22;7074;51.508;7.018;2023-03-07T10:01:49;5.30;99.90
13998;DHT22;7074;51.508;7.018;2023-03-07T10:04:21;5.30;99.90
13998;DHT22;7074;51.508;7.018;2023-03-07T10:06:59;5.30;99.90
13998;DHT22;7074;51.508;7.018;2023-03-07T10:09:30;5.40;99.90
13998;DHT22;7074;51.508;7.018;2023-03-07T10:12:15;5.40;99.90
13998;DHT22;7074;51.508;7.018;2023-03-07T10:15:01;5.50;99.90
13998;DHT22;7074;51.508;7.018;2023-03-07T10:17:50;5.50;99.90
13998;DHT22;7074;51.508;7.018;2023-03-07T10:20:28;5.50;99.90
13998;DHT22;7074;51.508;7.018;2023-03-07T10:23:09;5.50;99.90
13998;DHT22;7074;51.508;7.018;2023-03-07T10:25:47;5.40;99.90
13998;DHT22;7074;51.508;7.018;2023-03-07T10:28:21;5.40;99.90
13998;DHT22;7074;51.508;7.018;2023-03-07T10:30:51;5.30;99.90
13998;DHT22;7074;51.508;7.018;2023-03-07T10:33:20;5.40;99.90
13998;DHT22;7074;51.508;7.018;2023-03-07T10:35:51;5.40;99.90
13998;DHT22;7074;51.508;7.018;2023-03-07T10:38:29;5.40;99.90
13998;DHT22;7074;51.508;7.018;2023-03-07T10:41:01;5.30;99.90
13998;DHT22;7074;51.508;7.018;2023-03-07T10:43:31;5.30;99.90
13998;DHT22;7074;51.508;7.018;2023-03-07T10:46:10;5.40;99.90
13998;DHT22;7074;51.508;7.018;2023-03-07T10:48:39;5.30;99.90
13998;DHT22;7074;51.508;7.018;2023-03-07T10:51:19;5.30;99.90
13998;DHT22;7074;51.508;7.018;2023-03-07T10:53:51;5.30;99.90
13998;DHT22;7074;51.508;7.018;2023-03-07T10:56:19;5.40;99.90
13998;DHT22;7074;51.508;7.018;2023-03-07T10:59:01;5.40;99.90
13998;DHT22;7074;51.508;7.018;2023-03-07T11:01:30;5.40;99.90
13998;DHT22;7074;51.508;7.018;2023-03-07T11:03:59;5.50;99.90
13998;DHT22;7074;51.508;7.018;2023-03-07T11:06:30;5.50;99.90
13998;DHT22;7074;51.508;7.018;2023-03-07T11:09:07;5.50;99.90
13998;DHT22;7074;51.508;7.018;2023-03-07T11:11:36;5.40;99.90
13998;DHT22;7074;51.508;7.018;2023-03-07T11:14:05;5.40;99.90
13998;DHT22;7074;51.508;7.018;2023-03-07T11:16:39;5.50;99.90
13998;DHT22;7074;51.508;7.018;2023-03-07T11:19:34;5.50;99.90
13998;DHT22;7074;51.508;7.018;2023-03-07T11:22:03;5.60;99.90
13998;DHT22;7074;51.508;7.018;2023-03-07T11:24:37;5.50;99.90
13998;DHT22;7074;51.508;7.018;2023-03-07T11:27:05;5.50;99.90
13998;DHT22;7074;51.508;7.018;2023-03-07T11:29:32;5.50;99.90
13998;DHT22;7074;51.508;7.018;2023-03-07T11:32:09;5.50;99.90
13998;DHT22;7074;51.508;7.018;2023-03-07T11:34:44;5.50;99.90
13998;DHT22;7074;51.508;7.018;2023-03-07T11:37:25;5.60;99.90
13998;DHT22;7074;51.508;7.018;2023-03-07T11:40:06;5.50;99.90
13998;DHT22;7074;51.508;7.018;2023-03-07T11:42:39;5.50;99.90
13998;DHT22;7074;51.508;7.018;2023-03-07T11:45:23;5.50;99.90
13998;DHT22;7074;51.508;7.018;2023-03-07T11:48:01;5.50;99.90
13998;DHT22;7074;51.508;7.018;2023-03-07T11:50:32;5.40;99.90
13998;DHT22;7074;51.508;7.018;2023-03-07T11:53:18;5.30;99.90
13998;DHT22;7074;51.508;7.018;2023-03-07T11:56:02;5.30;99.90
13998;DHT22;7074;51.508;7.018;2023-03-07T11:58:45;5.20;99.90
13998;DHT22;7074;51.508;7.018;2023-03-07T12:01:19;5.30;99.90
13998;DHT22;7074;51.508;7.018;2023-03-07T12:04:21;5.40;99.90
13998;DHT22;7074;51.508;7.018;2023-03-07T12:07:01;5.50;99.90
13998;DHT22;7074;51.508;7.018;2023-03-07T12:09:40;5.50;99.90
13998;DHT22;7074;51.508;7.018;2023-03-07T12:12:28;5.50;99.90
13998;DHT22;7074;51.508;7.018;2023-03-07T12:15:06;5.60;99.90
13998;DHT22;7074;51.508;7.018;2023-03-07T12:17:47;5.70;99.90
13998;DHT22;7074;51.508;7.018;2023-03-07T12:20:29;5.80;99.90
13998;DHT22;7074;51.508;7.018;2023-03-07T12:23:08;5.80;99.90
13998;DHT22;7074;51.508;7.018;2023-03-07T12:25:42;5.70;99.90
13998;DHT22;7074;51.508;7.018;2023-03-07T12:28:18;5.70;99.90
13998;DHT22;7074;51.508;7.018;2023-03-07T12:31:01;5.80;99.90
13998;DHT22;7074;51.508;7.018;2023-03-07T12:33:47;5.60;99.90
13998;DHT22;7074;51.508;7.018;2023-03-07T12:36:22;5.70;99.90
13998;DHT22;7074;51.508;7.018;2023-03-07T12:38:57;5.70;99.90
13998;DHT22;7074;51.508;7.018;2023-03-07T12:41:47;5.70;99.90
13998;DHT22;7074;51.508;7.018;2023-03-07T12:44:28;5.80;99.90
13998;DHT22;7074;51.508;7.018;2023-03-07T12:47:02;5.80;99.90
13998;DHT22;7074;51.508;7.018;2023-03-07T12:49:38;5.80;99.90
13998;DHT22;7074;51.508;7.018;2023-03-07T12:52:13;5.80;99.90
13998;DHT22;7074;51.508;7.018;2023-03-07T12:54:44;5.80;99.90
13998;DHT22;7074;51.508;7.018;2023-03-07T12:57:24;5.80;99.90
13998;DHT22;7074;51.508;7.018;2023-03-07T12:59:58;5.90;99.90
13998;DHT22;7074;51.508;7.018;2023-03-07T13:02:29;5.90;99.90
13998;DHT22;7074;51.508;7.018;2023-03-07T13:04:57;5.90;99.90
13998;DHT22;7074;51.508;7.018;2023-03-07T13:07:28;6.00;99.90
13998;DHT22;7074;51.508;7.018;2023-03-07T13:09:58;6.00;99.90
13998;DHT22;7074;51.508;7.018;2023-03-07T13:12:31;6.00;99.90
13998;DHT22;7074;51.508;7.018;2023-03-07T13:15:01;6.00;99.90
13998;DHT22;7074;51.508;7.018;2023-03-07T13:17:53;6.00;99.90
13998;DHT22;7074;51.508;7.018;2023-03-07T13:20:37;6.00;99.90
13998;DHT22;7074;51.508;7.018;2023-03-07T13:23:26;6.00;99.90
13998;DHT22;7074;51.508;7.018;2023-03-07T13:28:47;5.90;99.90
13998;DHT22;7074;51.508;7.018;2023-03-07T13:31:38;5.90;99.90
13998;DHT22;7074;51.508;7.018;2023-03-07T13:37:49;5.90;99.90
13998;DHT22;7074;51.508;7.018;2023-03-07T13:46:50;5.80;99.90
13998;DHT22;7074;51.508;7.018;2023-03-07T13:49:41;5.80;99.90
13998;DHT22;7074;51.508;7.018;2023-03-07T13:52:40;5.80;99.90
13998;DHT22;7074;51.508;7.018;2023-03-07T13:55:25;5.90;99.90
13998;DHT22;7074;51.508;7.018;2023-03-07T13:57:55;5.90;99.90
13998;DHT22;7074;51.508;7.018;2023-03-07T14:00:30;5.90;99.90
13998;DHT22;7074;51.508;7.018;2023-03-07T14:03:00;5.90;99.90
13998;DHT22;7074;51.508;7.018;2023-03-07T14:05:30;5.90;99.90
13998;DHT22;7074;51.508;7.018;2023-03-07T14:07:58;6.00;99.90
13998;DHT22;7074;51.508;7.018;2023-03-07T14:10:28;6.00;99.90
13998;DHT22;7074;51.508;7.018;2023-03-07T14:13:26;6.00;99.90
13998;DHT22;7074;51.508;7.018;2023-03-07T14:16:05;6.10;99.90
13998;DHT22;7074;51.508;7.018;2023-03-07T14:18:48;6.10;99.90
13998;DHT22;7074;51.508;7.018;2023-03-07T14:21:25;6.10;99.90
13998;DHT22;7074;51.508;7.018;2023-03-07T14:24:12;6.00;99.90
13998;DHT22;7074;51.508;7.018;2023-03-07T14:26:43;6.10;99.90
13998;DHT22;7074;51.508;7.018;2023-03-07T14:29:15;6.10;99.90
13998;DHT22;7074;51.508;7.018;2023-03-07T14:31:44;6.00;99.90
13998;DHT22;7074;51.508;7.018;2023-03-07T14:34:21;6.00;99.90
13998;DHT22;7074;51.508;7.018;2023-03-07T14:36:53;6.00;99.90
13998;DHT22;7074;51.508;7.018;2023-03-07T14:39:21;6.00;99.90
13998;DHT22;7074;51.508;7.018;2023-03-07T14:41:57;6.00;99.90
13998;DHT22;7074;51.508;7.018;2023-03-07T14:45:04;6.00;99.90
13998;DHT22;7074;51.508;7.018;2023-03-07T14:47:50;6.00;99.90
13998;DHT22;7074;51.508;7.018;2023-03-07T14:50:25;6.00;99.90
13998;DHT22;7074;51.508;7.018;2023-03-07T14:52:56;6.10;99.90
13998;DHT22;7074;51.508;7.018;2023-03-07T14:55:26;6.10;99.90
13998;DHT22;7074;51.508;7.018;2023-03-07T14:57:57;6.10;99.90
13998;DHT22;7074;51.508;7.018;2023-03-07T15:00:26;6.00;99.90
13998;DHT22;7074;51.508;7.018;2023-03-07T15:02:55;5.90;99.90
13998;DHT22;7074;51.508;7.018;2023-03-07T15:05:26;5.90;99.90
13998;DHT22;7074;51.508;7.018;2023-03-07T15:07:54;5.90;99.90
13998;DHT22;7074;51.508;7.018;2023-03-07T15:10:23;5.90;99.90
13998;DHT22;7074;51.508;7.018;2023-03-07T15:12:54;5.80;99.90
13998;DHT22;7074;51.508;7.018;2023-03-07T15:15:26;5.80;99.90
13998;DHT22;7074;51.508;7.018;2023-03-07T15:17:56;5.80;99.90
13998;DHT22;7074;51.508;7.018;2023-03-07T15:20:26;5.80;99.90
13998;DHT22;7074;51.508;7.018;2023-03-07T15:23:01;5.90;99.90
13998;DHT22;7074;51.508;7.018;2023-03-07T15:25:30;5.90;99.90
13998;DHT22;7074;51.508;7.018;2023-03-07T15:28:00;5.80;99.90
13998;DHT22;7074;51.508;7.018;2023-03-07T15:30:30;5.90;99.90
13998;DHT22;7074;51.508;7.018;2023-03-07T15:33:12;5.70;99.90
13998;DHT22;7074;51.508;7.018;2023-03-07T15:35:44;5.80;99.90
13998;DHT22;7074;51.508;7.018;2023-03-07T15:38:17;5.70;99.90
13998;DHT22;7074;51.508;7.018;2023-03-07T15:40:45;5.70;99.90
13998;DHT22;7074;51.508;7.018;2023-03-07T15:43:23;5.80;99.90
13998;DHT22;7074;51.508;7.018;2023-03-07T15:46:00;5.80;99.90
13998;DHT22;7074;51.508;7.018;2023-03-07T15:48:35;5.80;99.90
13998;DHT22;7074;51.508;7.018;2023-03-07T15:51:08;5.90;99.90
13998;DHT22;7074;51.508;7.018;2023-03-07T15:53:38;5.80;99.90
13998;DHT22;7074;51.508;7.018;2023-03-07T15:56:18;5.90;99.90
13998;DHT22;7074;51.508;7.018;2023-03-07T15:58:48;5.90;99.90
13998;DHT22;7074;51.508;7.018;2023-03-07T16:01:19;5.90;99.90
13998;DHT22;7074;51.508;7.018;2023-03-07T16:03:48;5.90;99.90
13998;DHT22;7074;51.508;7.018;2023-03-07T16:06:40;5.80;99.90
13998;DHT22;7074;51.508;7.018;2023-03-07T16:09:11;5.90;99.90
13998;DHT22;7074;51.508;7.018;2023-03-07T16:11:39;5.90;99.90
13998;DHT22;7074;51.508;7.018;2023-03-07T16:14:14;5.90;99.90
13998;DHT22;7074;51.508;7.018;2023-03-07T16:16:45;5.90;99.90
13998;DHT22;7074;51.508;7.018;2023-03-07T16:19:13;5.90;99.90
13998;DHT22;7074;51.508;7.018;2023-03-07T16:21:41;5.90;99.90
13998;DHT22;7074;51.508;7.018;2023-03-07T16:24:09;5.90;99.90
13998;DHT22;7074;51.508;7.018;2023-03-07T16:26:37;6.00;99.90
13998;DHT22;7074;51.508;7.018;2023-03-07T16:29:11;5.90;99.90
13998;DHT22;7074;51.508;7.018;2023-03-07T16:31:40;5.90;99.90
13998;DHT22;7074;51.508;7.018;2023-03-07T16:34:13;5.80;99.90
13998;DHT22;7074;51.508;7.018;2023-03-07T16:36:42;5.80;99.90
13998;DHT22;7074;51.508;7.018;2023-03-07T16:39:12;5.80;99.90
13998;DHT22;7074;51.508;7.018;2023-03-07T16:41:43;5.60;99.90
13998;DHT22;7074;51.508;7.018;2023-03-07T16:44:14;5.40;99.90